Weather reports worldwide

Advertisment
Cadiz, Spain (8452): temperature & dewpoint: 20.09.2018 05:00:00 - 26.09.2018 05:00:00 (CEST)Cadiz, Spain (8452): wind speed & gusts: 20.09.2018 05:00:00 - 26.09.2018 05:00:00 (CEST)Cadiz, Spain (8452): wind direction: 20.09.2018 05:00:00 - 26.09.2018 05:00:00 (CEST)Cadiz, Spain (8452): reduced air pressure: 20.09.2018 05:00:00 - 26.09.2018 05:00:00 (CEST)Cadiz, Spain (8452): precipitation: 20.09.2018 05:00:00 - 26.09.2018 05:00:00 (CEST)
Date & Time tt [°C] td [°C] ff [km/h] ff [kn] fx [km/h] fx [kn] dd ppp [hPa] rr [mm]
26.09.2018 05:00:00 24,9 19,9 46 25 63 34 ESE 1018,9 0,0
26.09.2018 04:00:00 24,8 19,8 44 24 66 35 ESE 1018,8 0,0
26.09.2018 03:00:00 25,0 19,8 47 25 68 37 ESE 1018,9 0,0
26.09.2018 02:00:00 25,0 20,1 45 24 63 34 ESE 1019,2 -
26.09.2018 01:00:00 24,9 19,9 42 23 57 31 E 1019,3 0,0
26.09.2018 00:00:00 25,0 19,6 40 22 56 30 ESE 1019,2 0,0
25.09.2018 23:00:00 25,4 19,8 37 20 53 29 ESE 1019,0 0,0
25.09.2018 22:00:00 25,4 19,8 34 18 46 25 ESE 1018,6 0,0
25.09.2018 21:00:00 26,0 18,9 33 18 45 24 ESE 1018,2 0,0
25.09.2018 20:00:00 - - - - - - - - -
25.09.2018 19:00:00 28,3 18,7 27 14 48 26 ESE 1017,5 0,0
25.09.2018 18:00:00 29,2 18,0 36 19 46 25 ESE 1017,7 0,0
25.09.2018 17:00:00 29,8 18,2 31 17 46 25 ESE 1017,8 0,0
25.09.2018 16:00:00 30,0 18,1 36 20 46 25 ESE 1018,1 0,0
25.09.2018 15:00:00 30,1 18,2 29 15 40 22 ESE 1018,6 0,0
25.09.2018 14:00:00 30,0 18,5 26 14 38 20 ESE 1019,5 -
25.09.2018 13:00:00 29,5 18,3 21 12 34 18 ESE 1019,8 0,0
25.09.2018 12:00:00 28,5 18,0 24 13 37 20 ESE 1020,0 0,0
25.09.2018 11:00:00 27,5 16,5 24 13 32 17 ESE 1019,8 0,0
25.09.2018 10:00:00 26,1 15,2 13 7 21 11 E 1019,3 0,0
25.09.2018 09:00:00 24,9 14,0 8 4 15 8 E 1018,8 0,0
25.09.2018 08:00:00 24,6 14,0 8 4 12 7 E 1018,4 -
25.09.2018 07:00:00 24,1 13,1 3 2 10 5 E 1018,0 0,0
25.09.2018 06:00:00 25,0 11,6 5 3 12 7 ENE 1018,0 0,0
25.09.2018 05:00:00 25,5 13,7 5 3 23 12 N 1017,8 0,0
25.09.2018 04:00:00 26,0 13,2 14 8 23 13 ENE 1017,8 0,0
25.09.2018 03:00:00 - - 11 6 39 21 ENE - 0,0
25.09.2018 02:00:00 27,0 13,4 27 15 39 21 ESE 1017,7 -
25.09.2018 01:00:00 26,9 13,3 28 15 41 22 ESE 1017,9 0,0
25.09.2018 00:00:00 26,6 14,0 26 14 39 21 ESE 1018,2 0,0
24.09.2018 23:00:00 27,0 14,0 25 13 35 19 ESE 1018,0 0,0
24.09.2018 22:00:00 27,6 15,3 18 10 28 15 ESE 1017,6 0,0
24.09.2018 21:00:00 28,3 15,6 18 10 33 18 SE 1017,2 0,0
24.09.2018 20:00:00 30,2 15,9 27 14 37 20 ESE 1017,0 -
24.09.2018 19:00:00 30,7 18,1 17 9 25 14 SE 1016,7 0,0
24.09.2018 18:00:00 30,7 20,1 4 2 13 7 S 1016,9 0,0
24.09.2018 17:00:00 29,4 19,7 9 5 19 11 SSW 1017,3 0,0
24.09.2018 16:00:00 29,2 18,9 11 6 25 13 SW 1017,7 0,0
24.09.2018 15:00:00 30,1 17,2 12 6 21 11 SW 1018,3 0,0
24.09.2018 14:00:00 32,7 16,1 16 9 22 12 ESE 1018,8 -
24.09.2018 13:00:00 33,4 15,9 6 3 19 10 E 1019,3 0,0
24.09.2018 12:00:00 31,2 14,8 11 6 18 10 NE 1019,6 0,0
24.09.2018 11:00:00 28,3 14,1 11 6 16 9 NE 1019,4 0,0
24.09.2018 10:00:00 25,4 13,0 7 4 14 8 NNE 1019,2 0,0
24.09.2018 09:00:00 24,6 12,8 2 1 21 11 ENE 1018,8 0,0
24.09.2018 08:00:00 24,1 12,4 15 8 21 12 NNE 1018,1 -
24.09.2018 07:00:00 26,2 12,3 15 8 22 12 NE 1018,1 0,0
24.09.2018 06:00:00 26,5 12,5 17 9 24 13 NE 1018,2 0,0
24.09.2018 05:00:00 25,9 13,1 14 7 21 12 NE 1018,7 0,0
24.09.2018 04:00:00 25,4 13,6 12 7 25 13 ENE 1018,6 0,0
24.09.2018 03:00:00 25,7 14,8 13 7 25 13 ENE 1018,9 0,0
24.09.2018 02:00:00 25,6 15,6 8 4 33 18 ENE 1019,1 -
24.09.2018 01:00:00 26,2 15,3 21 12 33 18 ESE 1018,8 0,0
24.09.2018 00:00:00 26,1 15,8 27 15 38 20 ESE 1018,8 0,0
23.09.2018 23:00:00 26,2 15,3 24 13 43 23 E 1018,8 0,0
23.09.2018 22:00:00 26,8 14,9 31 17 43 23 E 1018,7 0,0
23.09.2018 21:00:00 27,4 15,1 33 18 45 24 ESE 1018,3 0,0
23.09.2018 20:00:00 29,1 15,3 29 15 45 25 ESE 1018,2 -
23.09.2018 19:00:00 30,7 15,2 32 17 50 27 ESE 1017,8 0,0
23.09.2018 18:00:00 31,3 15,3 34 18 44 24 ESE 1017,9 0,0
23.09.2018 17:00:00 31,4 15,0 33 18 85 46 ESE 1018,1 0,0
23.09.2018 16:00:00 31,8 14,9 31 17 42 23 ESE 1018,7 0,0
23.09.2018 15:00:00 31,8 15,3 30 16 39 21 ESE 1019,3 0,0
23.09.2018 14:00:00 31,3 15,3 23 12 37 20 ESE 1019,9 -
23.09.2018 13:00:00 31,3 15,7 22 12 35 19 E 1020,2 0,0
23.09.2018 12:00:00 30,4 15,7 19 10 32 18 E 1020,7 0,0
23.09.2018 11:00:00 29,1 15,6 9 5 17 9 E 1020,9 0,0
23.09.2018 10:00:00 26,5 13,3 10 6 20 11 NE 1020,5 0,0
23.09.2018 09:00:00 25,2 12,4 11 6 27 14 NE 1019,8 0,0
23.09.2018 08:00:00 25,3 13,2 10 6 - - ENE 1019,2 -
23.09.2018 07:00:00 24,0 13,9 9 5 16 9 E 1019,5 0,0
23.09.2018 06:00:00 23,7 12,3 7 4 22 12 ENE 1019,4 0,0
23.09.2018 05:00:00 23,9 13,2 14 8 21 12 ENE 1019,4 0,0
23.09.2018 04:00:00 24,7 14,8 14 8 29 16 ENE 1019,7 0,0
23.09.2018 03:00:00 24,9 14,6 11 6 30 16 ENE 1020,0 0,0
23.09.2018 02:00:00 25,2 15,5 23 12 38 20 E 1020,1 -
23.09.2018 01:00:00 25,3 14,4 27 14 36 19 E 1020,2 0,0
23.09.2018 00:00:00 25,5 13,7 23 13 43 23 ESE 1020,3 0,0
22.09.2018 23:00:00 25,9 13,8 29 16 44 24 ESE 1020,0 0,0
22.09.2018 22:00:00 26,6 13,0 28 15 37 20 ESE 1019,8 0,0
22.09.2018 21:00:00 27,7 12,8 27 14 39 21 ESE 1019,3 0,0
22.09.2018 20:00:00 29,2 13,5 29 16 40 21 E 1019,2 -
22.09.2018 19:00:00 30,4 14,5 27 15 49 26 ESE 1018,9 0,0
22.09.2018 18:00:00 30,9 14,9 34 19 50 27 ESE 1018,7 0,0
22.09.2018 17:00:00 31,1 15,1 34 19 - - ESE 1018,9 0,0
22.09.2018 16:00:00 31,3 15,7 32 17 41 22 ESE 1019,2 0,0
22.09.2018 15:00:00 31,6 15,5 28 15 40 22 E 1019,6 0,0
22.09.2018 14:00:00 31,4 16,6 26 14 34 18 E 1020,2 -
22.09.2018 13:00:00 31,1 17,1 14 8 21 12 E 1020,6 0,0
22.09.2018 12:00:00 30,3 17,1 7 4 16 9 E 1020,7 0,0
22.09.2018 11:00:00 28,8 16,0 6 4 16 9 ENE 1020,5 0,0
22.09.2018 10:00:00 25,8 15,5 6 3 12 7 ENE 1020,0 0,0
22.09.2018 09:00:00 23,4 15,7 5 3 9 5 NNE 1019,6 0,0
22.09.2018 08:00:00 23,1 15,9 5 3 20 11 NNE 1019,2 -
22.09.2018 07:00:00 24,7 16,1 13 7 19 10 E 1018,6 0,0
22.09.2018 06:00:00 24,6 16,3 10 6 16 9 ESE 1018,3 0,0
22.09.2018 05:00:00 24,5 15,4 11 6 16 9 E 1018,2 0,0
22.09.2018 04:00:00 24,7 15,6 8 4 17 9 E 1018,4 0,0
22.09.2018 03:00:00 25,2 16,0 9 5 18 10 E 1018,8 0,0
22.09.2018 02:00:00 25,4 16,2 12 6 21 11 E 1018,9 -
22.09.2018 01:00:00 25,5 15,5 15 8 20 11 E 1018,8 0,0
22.09.2018 00:00:00 24,7 16,6 4 2 9 5 ESE 1018,7 0,0
21.09.2018 23:00:00 24,6 19,8 6 4 13 7 SSE 1018,6 0,0
21.09.2018 22:00:00 25,2 21,3 0 0 5 3 NNW 1018,2 0,0
21.09.2018 21:00:00 25,4 21,1 3 1 13 7 SSW 1017,6 0,0
21.09.2018 20:00:00 26,4 20,7 7 4 15 8 W 1016,9 -
21.09.2018 19:00:00 27,0 20,6 10 5 17 9 W 1016,9 0,0
21.09.2018 18:00:00 27,7 19,8 11 6 19 10 W 1016,9 0,0
21.09.2018 17:00:00 28,0 19,8 13 7 20 11 W 1017,3 0,0
21.09.2018 16:00:00 27,1 19,2 14 7 20 11 W 1017,6 0,0
21.09.2018 15:00:00 26,1 19,5 14 8 22 12 W 1018,1 0,0
21.09.2018 14:00:00 27,4 20,0 14 7 19 11 W 1018,7 -
21.09.2018 13:00:00 27,4 19,5 8 5 13 7 W 1019,1 0,0
21.09.2018 12:00:00 27,8 20,1 2 1 13 7 ENE 1019,0 0,0
21.09.2018 11:00:00 25,7 19,6 8 4 16 9 ESE 1018,7 0,0
21.09.2018 10:00:00 24,7 19,1 11 6 16 8 E 1018,6 0,0
21.09.2018 09:00:00 22,9 20,3 6 3 12 6 E 1018,3 0,0
21.09.2018 08:00:00 22,3 19,6 8 5 14 7 E 1017,6 -
21.09.2018 07:00:00 22,1 19,1 6 3 14 7 ENE 1017,5 0,0
21.09.2018 06:00:00 22,1 18,5 9 5 14 7 NE 1017,3 0,0
21.09.2018 05:00:00 22,5 18,7 3 2 9 5 NE 1017,2 0,0
21.09.2018 04:00:00 22,8 19,0 6 3 11 6 NE 1017,4 0,0
21.09.2018 03:00:00 23,4 19,6 8 5 21 11 ESE 1017,7 0,0
21.09.2018 02:00:00 23,8 19,5 18 10 22 12 ESE 1018,1 -
21.09.2018 01:00:00 24,1 19,0 7 4 19 10 E 1018,4 0,0
21.09.2018 00:00:00 24,6 19,0 11 6 19 10 E 1018,4 0,0
20.09.2018 23:00:00 24,6 19,2 7 4 17 9 ENE 1018,0 0,0
20.09.2018 22:00:00 25,1 19,9 8 4 15 8 NE 1017,8 0,0
20.09.2018 21:00:00 25,1 21,4 10 5 16 8 NNW 1017,3 0,0
20.09.2018 20:00:00 26,7 21,0 5 3 21 11 WNW 1017,0 -
20.09.2018 19:00:00 27,5 20,8 12 6 22 12 S 1016,6 0,0
20.09.2018 18:00:00 28,5 20,0 14 8 29 16 S 1016,8 0,0
20.09.2018 17:00:00 28,5 19,7 15 8 29 15 S 1017,0 0,0
20.09.2018 16:00:00 28,6 19,5 15 8 29 15 S 1017,5 0,0
20.09.2018 15:00:00 28,5 20,8 14 8 24 13 S 1018,0 0,0
20.09.2018 14:00:00 28,5 20,3 10 5 17 9 SSW 1018,7 -
20.09.2018 13:00:00 28,6 19,8 9 5 23 12 SSW 1019,3 0,0
20.09.2018 12:00:00 28,2 19,4 16 8 26 14 E 1019,3 0,0
20.09.2018 11:00:00 26,9 20,0 23 12 31 17 E 1019,4 0,0
20.09.2018 10:00:00 25,3 20,1 7 4 16 9 E 1019,2 0,0
20.09.2018 09:00:00 23,5 18,8 9 5 14 8 NE 1019,0 0,0
20.09.2018 08:00:00 22,9 18,5 10 5 17 9 ENE 1018,6 -
20.09.2018 07:00:00 23,4 18,5 8 5 17 9 ENE 1018,5 0,0
20.09.2018 06:00:00 24,0 19,3 16 9 23 12 E 1018,3 0,0
20.09.2018 05:00:00 24,0 18,8 13 7 18 10 ESE 1018,4 0,0

tt = temperature
td = dewpoint
ff = wind speed
fx = gusts
dd = wind direction
ppp = reduced air pressure
rr = precipitation

Next stations